sensor_id;sensor_type;location;lat;lon;timestamp;pressure;altitude;pressure_sealevel;temperature;humidity
25650;BME280;13505;45.196;5.696;2023-02-01T05:00:08;100495.22;;;2.76;75.86
25650;BME280;13505;45.196;5.696;2023-02-01T05:04:59;100499.38;;;2.51;77.15
25650;BME280;13505;45.196;5.696;2023-02-01T05:09:50;100496.69;;;2.42;77.42
25650;BME280;13505;45.196;5.696;2023-02-01T05:14:41;100490.78;;;2.61;76.13
25650;BME280;13505;45.196;5.696;2023-02-01T05:19:31;100497.72;;;2.62;75.96
25650;BME280;13505;45.196;5.696;2023-02-01T05:24:21;100495.06;;;2.55;75.95
25650;BME280;13505;45.196;5.696;2023-02-01T05:29:12;100496.63;;;2.34;76.82
25650;BME280;13505;45.196;5.696;2023-02-01T05:34:03;100506.22;;;2.38;77.25
25650;BME280;13505;45.196;5.696;2023-02-01T05:38:54;100510.22;;;2.02;78.31
25650;BME280;13505;45.196;5.696;2023-02-01T05:43:44;100518.69;;;1.85;80.65
25650;BME280;13505;45.196;5.696;2023-02-01T05:48:34;100514.41;;;1.89;80.93
25650;BME280;13505;45.196;5.696;2023-02-01T05:53:25;100506.34;;;1.67;81.70
25650;BME280;13505;45.196;5.696;2023-02-01T05:58:15;100515.34;;;1.94;80.51
25650;BME280;13505;45.196;5.696;2023-02-01T06:03:06;100513.88;;;2.21;79.22
25650;BME280;13505;45.196;5.696;2023-02-01T06:07:56;100524.09;;;2.01;79.98
25650;BME280;13505;45.196;5.696;2023-02-01T06:12:47;100532.25;;;2.36;80.60
25650;BME280;13505;45.196;5.696;2023-02-01T06:17:37;100529.66;;;2.40;77.88
25650;BME280;13505;45.196;5.696;2023-02-01T06:22:31;100525.00;;;2.07;80.08
25650;BME280;13505;45.196;5.696;2023-02-01T06:27:21;100528.66;;;2.27;79.20
25650;BME280;13505;45.196;5.696;2023-02-01T06:32:11;100536.13;;;1.92;79.54
25650;BME280;13505;45.196;5.696;2023-02-01T06:37:02;100544.00;;;1.97;80.06
25650;BME280;13505;45.196;5.696;2023-02-01T06:41:53;100539.72;;;2.04;79.74
25650;BME280;13505;45.196;5.696;2023-02-01T06:46:43;100554.63;;;2.19;78.21
25650;BME280;13505;45.196;5.696;2023-02-01T06:51:33;100551.34;;;2.35;77.49
25650;BME280;13505;45.196;5.696;2023-02-01T06:56:24;100547.84;;;2.35;78.54
25650;BME280;13505;45.196;5.696;2023-02-01T07:01:15;100553.31;;;1.78;79.73
25650;BME280;13505;45.196;5.696;2023-02-01T07:06:07;100557.38;;;1.54;81.12
25650;BME280;13505;45.196;5.696;2023-02-01T07:11:06;100565.28;;;1.65;80.99
25650;BME280;13505;45.196;5.696;2023-02-01T07:16:01;100566.50;;;1.92;80.41
25650;BME280;13505;45.196;5.696;2023-02-01T07:20:51;100576.75;;;1.78;80.62
25650;BME280;13505;45.196;5.696;2023-02-01T07:25:42;100585.41;;;1.77;80.61
25650;BME280;13505;45.196;5.696;2023-02-01T07:30:32;100596.13;;;2.03;80.55
25650;BME280;13505;45.196;5.696;2023-02-01T07:35:22;100599.03;;;2.30;79.34
25650;BME280;13505;45.196;5.696;2023-02-01T07:40:13;100592.97;;;2.31;79.04
25650;BME280;13505;45.196;5.696;2023-02-01T07:45:04;100604.22;;;2.28;77.63
25650;BME280;13505;45.196;5.696;2023-02-01T07:49:55;100603.28;;;2.21;78.04
25650;BME280;13505;45.196;5.696;2023-02-01T07:54:45;100607.53;;;2.16;78.71
25650;BME280;13505;45.196;5.696;2023-02-01T07:59:35;100604.00;;;2.09;77.61
25650;BME280;13505;45.196;5.696;2023-02-01T08:04:45;100619.75;;;2.20;78.23
25650;BME280;13505;45.196;5.696;2023-02-01T08:09:36;100635.28;;;2.11;78.06
25650;BME280;13505;45.196;5.696;2023-02-01T08:14:26;100647.66;;;2.32;78.19
25650;BME280;13505;45.196;5.696;2023-02-01T08:19:16;100650.44;;;2.49;77.80
25650;BME280;13505;45.196;5.696;2023-02-01T08:24:08;100653.97;;;3.54;76.36
25650;BME280;13505;45.196;5.696;2023-02-01T08:29:03;100661.72;;;3.43;73.26
25650;BME280;13505;45.196;5.696;2023-02-01T08:33:59;100630.72;;;3.96;71.63
25650;BME280;13505;45.196;5.696;2023-02-01T08:38:50;100637.78;;;4.25;69.51
25650;BME280;13505;45.196;5.696;2023-02-01T08:43:42;100645.63;;;4.20;69.17
25650;BME280;13505;45.196;5.696;2023-02-01T08:48:33;100615.94;;;3.99;69.24
25650;BME280;13505;45.196;5.696;2023-02-01T08:53:24;100606.50;;;4.54;67.72
25650;BME280;13505;45.196;5.696;2023-02-01T08:58:14;100614.41;;;5.12;65.65
25650;BME280;13505;45.196;5.696;2023-02-01T09:03:09;100629.22;;;5.03;64.18
25650;BME280;13505;45.196;5.696;2023-02-01T09:08:00;100617.00;;;4.98;63.77
25650;BME280;13505;45.196;5.696;2023-02-01T09:12:51;100603.09;;;5.07;63.49
25650;BME280;13505;45.196;5.696;2023-02-01T09:17:42;100590.84;;;4.88;64.36
25650;BME280;13505;45.196;5.696;2023-02-01T09:22:33;100582.09;;;5.44;65.13
25650;BME280;13505;45.196;5.696;2023-02-01T09:27:23;100600.44;;;5.03;62.91
25650;BME280;13505;45.196;5.696;2023-02-01T09:32:14;100583.59;;;6.15;63.63
25650;BME280;13505;45.196;5.696;2023-02-01T09:37:04;100598.09;;;6.75;58.98
25650;BME280;13505;45.196;5.696;2023-02-01T09:42:02;100599.31;;;6.23;58.33
25650;BME280;13505;45.196;5.696;2023-02-01T09:46:57;100612.06;;;6.79;61.71
25650;BME280;13505;45.196;5.696;2023-02-01T09:51:50;100606.41;;;7.27;58.64
25650;BME280;13505;45.196;5.696;2023-02-01T09:56:53;100617.19;;;6.94;55.92
25650;BME280;13505;45.196;5.696;2023-02-01T10:01:45;100630.00;;;7.30;54.36
25650;BME280;13505;45.196;5.696;2023-02-01T10:07:15;100628.38;;;7.15;55.66
25650;BME280;13505;45.196;5.696;2023-02-01T10:12:41;100650.59;;;6.67;56.87
25650;BME280;13505;45.196;5.696;2023-02-01T10:17:56;100665.94;;;7.25;55.60
25650;BME280;13505;45.196;5.696;2023-02-01T10:23:30;100669.56;;;7.08;55.97
25650;BME280;13505;45.196;5.696;2023-02-01T10:28:25;100665.72;;;7.51;55.15
25650;BME280;13505;45.196;5.696;2023-02-01T10:33:25;100657.19;;;7.28;53.82
25650;BME280;13505;45.196;5.696;2023-02-01T10:38:25;100664.06;;;7.38;54.01
25650;BME280;13505;45.196;5.696;2023-02-01T10:43:17;100668.59;;;8.09;55.30
25650;BME280;13505;45.196;5.696;2023-02-01T10:48:07;100667.09;;;7.87;53.46
25650;BME280;13505;45.196;5.696;2023-02-01T10:53:05;100654.91;;;8.56;52.84
25650;BME280;13505;45.196;5.696;2023-02-01T10:57:59;100649.19;;;8.86;53.13
25650;BME280;13505;45.196;5.696;2023-02-01T11:02:50;100634.03;;;9.02;61.02
25650;BME280;13505;45.196;5.696;2023-02-01T11:07:49;100630.59;;;9.50;50.83
25650;BME280;13505;45.196;5.696;2023-02-01T11:12:53;100621.78;;;9.51;50.94
25650;BME280;13505;45.196;5.696;2023-02-01T11:17:46;100614.59;;;10.05;50.12
25650;BME280;13505;45.196;5.696;2023-02-01T11:22:37;100593.66;;;10.40;49.53
25650;BME280;13505;45.196;5.696;2023-02-01T11:27:27;100585.25;;;10.63;48.58
25650;BME280;13505;45.196;5.696;2023-02-01T11:32:20;100566.66;;;11.02;52.44
25650;BME280;13505;45.196;5.696;2023-02-01T11:37:24;100546.78;;;11.22;48.62
25650;BME280;13505;45.196;5.696;2023-02-01T11:42:16;100525.06;;;11.12;48.11
25650;BME280;13505;45.196;5.696;2023-02-01T12:12:47;100457.84;;;10.56;49.61
25650;BME280;13505;45.196;5.696;2023-02-01T12:33:52;100404.22;;;11.51;49.14
25650;BME280;13505;45.196;5.696;2023-02-01T12:59:24;100378.41;;;11.87;49.05
25650;BME280;13505;45.196;5.696;2023-02-01T13:04:21;100365.78;;;11.97;47.49
25650;BME280;13505;45.196;5.696;2023-02-01T13:09:25;100351.41;;;12.33;49.20
25650;BME280;13505;45.196;5.696;2023-02-01T13:19:28;100347.88;;;12.83;46.67
25650;BME280;13505;45.196;5.696;2023-02-01T13:24:40;100351.56;;;12.54;47.56
25650;BME280;13505;45.196;5.696;2023-02-01T13:29:34;100355.34;;;12.20;49.07
25650;BME280;13505;45.196;5.696;2023-02-01T13:44:40;100355.50;;;12.67;47.24
25650;BME280;13505;45.196;5.696;2023-02-01T13:49:37;100350.06;;;12.96;47.00
25650;BME280;13505;45.196;5.696;2023-02-01T13:54:31;100340.97;;;13.03;47.39
25650;BME280;13505;45.196;5.696;2023-02-01T14:04:50;100334.84;;;12.77;47.25
25650;BME280;13505;45.196;5.696;2023-02-01T14:09:40;100339.06;;;13.07;47.10
25650;BME280;13505;45.196;5.696;2023-02-01T14:24:26;100343.81;;;13.21;48.03
25650;BME280;13505;45.196;5.696;2023-02-01T14:29:36;100329.53;;;13.25;47.01
25650;BME280;13505;45.196;5.696;2023-02-01T14:39:24;100341.59;;;13.10;47.24
25650;BME280;13505;45.196;5.696;2023-02-01T14:44:27;100331.50;;;12.72;48.20
25650;BME280;13505;45.196;5.696;2023-02-01T14:49:18;100327.09;;;12.22;49.77
25650;BME280;13505;45.196;5.696;2023-02-01T14:54:12;100322.53;;;12.51;50.07
25650;BME280;13505;45.196;5.696;2023-02-01T14:59:12;100319.91;;;12.51;49.39
25650;BME280;13505;45.196;5.696;2023-02-01T15:04:15;100320.78;;;12.51;49.56
25650;BME280;13505;45.196;5.696;2023-02-01T15:14:22;100324.75;;;12.12;50.91
25650;BME280;13505;45.196;5.696;2023-02-01T15:19:13;100320.16;;;12.18;50.58
25650;BME280;13505;45.196;5.696;2023-02-01T15:24:17;100330.13;;;11.82;50.78
25650;BME280;13505;45.196;5.696;2023-02-01T15:29:11;100330.84;;;11.59;51.70
25650;BME280;13505;45.196;5.696;2023-02-01T15:34:02;100326.66;;;11.52;51.86
25650;BME280;13505;45.196;5.696;2023-02-01T15:44:17;100321.44;;;11.22;53.30
25650;BME280;13505;45.196;5.696;2023-02-01T15:49:27;100324.72;;;11.00;53.30
25650;BME280;13505;45.196;5.696;2023-02-01T15:54:24;100334.03;;;10.82;53.93
25650;BME280;13505;45.196;5.696;2023-02-01T15:59:17;100338.94;;;10.64;53.53
25650;BME280;13505;45.196;5.696;2023-02-01T16:04:20;100341.03;;;10.51;54.98
25650;BME280;13505;45.196;5.696;2023-02-01T16:09:13;100351.41;;;9.86;56.27
25650;BME280;13505;45.196;5.696;2023-02-01T16:14:04;100367.97;;;9.93;56.48
25650;BME280;13505;45.196;5.696;2023-02-01T16:18:54;100389.81;;;9.97;56.26
25650;BME280;13505;45.196;5.696;2023-02-01T16:23:48;100384.59;;;9.95;56.68
25650;BME280;13505;45.196;5.696;2023-02-01T16:28:39;100406.53;;;9.96;56.07
25650;BME280;13505;45.196;5.696;2023-02-01T16:33:30;100418.91;;;9.92;55.12
25650;BME280;13505;45.196;5.696;2023-02-01T16:38:20;100429.72;;;9.81;55.78
25650;BME280;13505;45.196;5.696;2023-02-01T16:48:04;100444.13;;;9.64;55.99
25650;BME280;13505;45.196;5.696;2023-02-01T16:52:55;100460.81;;;9.65;56.16
25650;BME280;13505;45.196;5.696;2023-02-01T16:57:45;100471.44;;;9.60;55.39
25650;BME280;13505;45.196;5.696;2023-02-01T17:02:35;100465.72;;;9.40;55.24
25650;BME280;13505;45.196;5.696;2023-02-01T17:07:26;100478.06;;;9.38;55.33
25650;BME280;13505;45.196;5.696;2023-02-01T17:12:25;100475.63;;;9.28;55.00
25650;BME280;13505;45.196;5.696;2023-02-01T17:17:16;100496.59;;;9.31;54.91
25650;BME280;13505;45.196;5.696;2023-02-01T17:22:07;100491.41;;;9.30;54.47
25650;BME280;13505;45.196;5.696;2023-02-01T17:26:58;100492.81;;;8.99;55.35
25650;BME280;13505;45.196;5.696;2023-02-01T17:31:53;100499.66;;;9.10;54.89
25650;BME280;13505;45.196;5.696;2023-02-01T17:36:45;100490.88;;;9.11;54.63
25650;BME280;13505;45.196;5.696;2023-02-01T17:41:36;100508.38;;;9.12;54.82
25650;BME280;13505;45.196;5.696;2023-02-01T17:46:27;100502.44;;;9.02;54.72
25650;BME280;13505;45.196;5.696;2023-02-01T17:51:23;100494.47;;;9.06;54.54
25650;BME280;13505;45.196;5.696;2023-02-01T17:56:25;100496.34;;;9.00;54.60
25650;BME280;13505;45.196;5.696;2023-02-01T18:01:18;100493.22;;;8.77;55.16
25650;BME280;13505;45.196;5.696;2023-02-01T18:06:15;100499.16;;;8.89;55.78
25650;BME280;13505;45.196;5.696;2023-02-01T18:11:15;100512.38;;;8.84;55.84
25650;BME280;13505;45.196;5.696;2023-02-01T18:16:12;100506.56;;;8.67;56.85
25650;BME280;13505;45.196;5.696;2023-02-01T18:21:05;100517.09;;;8.67;57.20
25650;BME280;13505;45.196;5.696;2023-02-01T18:25:56;100516.41;;;8.55;57.60
25650;BME280;13505;45.196;5.696;2023-02-01T18:30:48;100520.00;;;8.46;57.85
25650;BME280;13505;45.196;5.696;2023-02-01T18:35:40;100524.47;;;8.41;57.96
25650;BME280;13505;45.196;5.696;2023-02-01T18:40:34;100540.44;;;8.27;58.96
25650;BME280;13505;45.196;5.696;2023-02-01T18:45:31;100546.53;;;8.31;58.09
25650;BME280;13505;45.196;5.696;2023-02-01T18:50:24;100546.53;;;8.31;58.14
25650;BME280;13505;45.196;5.696;2023-02-01T18:55:15;100535.13;;;8.30;58.17
25650;BME280;13505;45.196;5.696;2023-02-01T19:00:07;100532.69;;;8.16;57.54
25650;BME280;13505;45.196;5.696;2023-02-01T19:04:59;100537.88;;;8.24;57.53
25650;BME280;13505;45.196;5.696;2023-02-01T19:09:49;100536.94;;;8.27;57.54
25650;BME280;13505;45.196;5.696;2023-02-01T19:14:40;100537.75;;;8.30;57.54
25650;BME280;13505;45.196;5.696;2023-02-01T19:19:32;100528.38;;;8.14;58.03
25650;BME280;13505;45.196;5.696;2023-02-01T19:24:23;100520.50;;;8.12;57.67
25650;BME280;13505;45.196;5.696;2023-02-01T19:29:16;100522.31;;;8.07;57.60
25650;BME280;13505;45.196;5.696;2023-02-01T19:34:07;100529.41;;;8.00;57.23
25650;BME280;13505;45.196;5.696;2023-02-01T19:38:57;100536.63;;;7.87;57.91
25650;BME280;13505;45.196;5.696;2023-02-01T19:43:48;100530.47;;;7.87;58.45
25650;BME280;13505;45.196;5.696;2023-02-01T19:48:38;100542.75;;;7.85;58.45
25650;BME280;13505;45.196;5.696;2023-02-01T19:53:29;100547.22;;;7.78;59.03
25650;BME280;13505;45.196;5.696;2023-02-01T19:58:19;100546.44;;;7.71;59.08
25650;BME280;13505;45.196;5.696;2023-02-01T20:03:10;100547.44;;;7.59;59.15
25650;BME280;13505;45.196;5.696;2023-02-01T20:08:00;100549.13;;;7.66;59.04
25650;BME280;13505;45.196;5.696;2023-02-01T20:12:51;100556.06;;;7.72;59.32
25650;BME280;13505;45.196;5.696;2023-02-01T20:17:41;100552.56;;;7.72;59.96
25650;BME280;13505;45.196;5.696;2023-02-01T20:22:32;100551.75;;;7.63;60.32
25650;BME280;13505;45.196;5.696;2023-02-01T20:27:22;100558.84;;;7.57;60.23
25650;BME280;13505;45.196;5.696;2023-02-01T20:32:13;100561.66;;;7.38;61.49
25650;BME280;13505;45.196;5.696;2023-02-01T20:37:03;100571.22;;;7.45;62.21
25650;BME280;13505;45.196;5.696;2023-02-01T20:41:54;100557.25;;;7.45;62.25
25650;BME280;13505;45.196;5.696;2023-02-01T20:46:44;100566.91;;;7.38;63.39
25650;BME280;13505;45.196;5.696;2023-02-01T20:51:36;100570.38;;;7.42;62.87
25650;BME280;13505;45.196;5.696;2023-02-01T20:56:26;100572.16;;;7.39;63.85
25650;BME280;13505;45.196;5.696;2023-02-01T21:01:17;100573.16;;;7.29;64.73
25650;BME280;13505;45.196;5.696;2023-02-01T21:06:10;100577.50;;;7.30;65.09
25650;BME280;13505;45.196;5.696;2023-02-01T21:11:05;100585.47;;;7.24;65.80
25650;BME280;13505;45.196;5.696;2023-02-01T21:15:57;100596.00;;;7.19;65.85
25650;BME280;13505;45.196;5.696;2023-02-01T21:20:48;100592.50;;;7.20;65.81
25650;BME280;13505;45.196;5.696;2023-02-01T21:25:39;100594.22;;;7.23;65.14
25650;BME280;13505;45.196;5.696;2023-02-01T21:30:30;100590.66;;;7.27;65.24
25650;BME280;13505;45.196;5.696;2023-02-01T21:35:20;100588.97;;;7.21;64.59
25650;BME280;13505;45.196;5.696;2023-02-01T21:40:11;100589.06;;;7.14;65.19
25650;BME280;13505;45.196;5.696;2023-02-01T21:45:02;100584.69;;;7.09;64.50
25650;BME280;13505;45.196;5.696;2023-02-01T21:49:53;100583.84;;;7.07;63.92
25650;BME280;13505;45.196;5.696;2023-02-01T21:54:44;100577.75;;;7.07;62.91
25650;BME280;13505;45.196;5.696;2023-02-01T21:59:34;100580.38;;;7.07;62.94
25650;BME280;13505;45.196;5.696;2023-02-01T22:04:27;100578.56;;;7.14;62.71
25650;BME280;13505;45.196;5.696;2023-02-01T22:09:20;100580.34;;;7.08;62.92
25650;BME280;13505;45.196;5.696;2023-02-01T22:14:11;100577.72;;;7.08;63.07
25650;BME280;13505;45.196;5.696;2023-02-01T22:19:02;100594.41;;;7.01;62.69
25650;BME280;13505;45.196;5.696;2023-02-01T22:23:54;100583.03;;;6.99;62.91
25650;BME280;13505;45.196;5.696;2023-02-01T22:28:44;100587.50;;;6.89;63.70
25650;BME280;13505;45.196;5.696;2023-02-01T22:33:36;100587.47;;;6.92;63.74
25650;BME280;13505;45.196;5.696;2023-02-01T22:38:31;100602.31;;;6.95;63.95
25650;BME280;13505;45.196;5.696;2023-02-01T22:43:22;100604.09;;;6.90;63.45
25650;BME280;13505;45.196;5.696;2023-02-01T22:48:12;100607.53;;;6.98;62.66
25650;BME280;13505;45.196;5.696;2023-02-01T22:53:03;100596.19;;;6.96;62.71
25650;BME280;13505;45.196;5.696;2023-02-01T22:57:55;100595.38;;;6.88;63.02
